sensor_id;sensor_type;location;lat;lon;timestamp;noise_LAeq;noise_LA_min;noise_LA_max;noise_LA01;noise_LA95
64996;Laerm;51545;51.568;6.998;2023-02-26T00:01:20;41.07;34.65;47.44;;
64996;Laerm;51545;51.568;6.998;2023-02-26T00:03:50;39.42;34.48;45.75;;
64996;Laerm;51545;51.568;6.998;2023-02-26T00:06:17;39.33;35.00;46.56;;
64996;Laerm;51545;51.568;6.998;2023-02-26T00:08:42;39.74;35.81;44.24;;
64996;Laerm;51545;51.568;6.998;2023-02-26T00:11:09;41.55;35.01;52.33;;
64996;Laerm;51545;51.568;6.998;2023-02-26T00:13:36;40.93;34.83;49.70;;
64996;Laerm;51545;51.568;6.998;2023-02-26T00:16:09;38.31;33.83;46.61;;
64996;Laerm;51545;51.568;6.998;2023-02-26T00:18:38;39.70;32.46;51.59;;
64996;Laerm;51545;51.568;6.998;2023-02-26T00:21:04;38.23;31.86;43.23;;
64996;Laerm;51545;51.568;6.998;2023-02-26T00:23:29;38.70;34.45;49.31;;
64996;Laerm;51545;51.568;6.998;2023-02-26T00:25:57;37.35;32.20;45.21;;
64996;Laerm;51545;51.568;6.998;2023-02-26T00:28:22;38.92;32.41;48.32;;
64996;Laerm;51545;51.568;6.998;2023-02-26T00:30:48;38.19;33.99;43.37;;
64996;Laerm;51545;51.568;6.998;2023-02-26T00:33:14;37.05;32.09;42.11;;
64996;Laerm;51545;51.568;6.998;2023-02-26T00:35:39;37.26;31.89;43.92;;
64996;Laerm;51545;51.568;6.998;2023-02-26T00:38:11;37.55;31.64;44.11;;
64996;Laerm;51545;51.568;6.998;2023-02-26T00:40:45;37.85;33.02;42.86;;
64996;Laerm;51545;51.568;6.998;2023-02-26T00:43:21;37.74;31.28;49.10;;
64996;Laerm;51545;51.568;6.998;2023-02-26T00:54:23;38.36;31.65;47.79;;
64996;Laerm;51545;51.568;6.998;2023-02-26T00:56:49;36.25;32.54;41.39;;
64996;Laerm;51545;51.568;6.998;2023-02-26T00:59:16;36.44;32.16;41.86;;
64996;Laerm;51545;51.568;6.998;2023-02-26T01:01:42;35.65;30.30;44.30;;
64996;Laerm;51545;51.568;6.998;2023-02-26T01:04:09;36.43;31.03;47.72;;
64996;Laerm;51545;51.568;6.998;2023-02-26T01:06:40;36.96;30.48;43.46;;
64996;Laerm;51545;51.568;6.998;2023-02-26T01:11:34;37.32;32.09;46.71;;
64996;Laerm;51545;51.568;6.998;2023-02-26T01:14:00;36.56;31.72;41.55;;
64996;Laerm;51545;51.568;6.998;2023-02-26T01:16:27;37.14;31.55;44.87;;
64996;Laerm;51545;51.568;6.998;2023-02-26T01:19:16;36.21;31.28;43.26;;
64996;Laerm;51545;51.568;6.998;2023-02-26T01:21:49;37.58;32.20;42.86;;
64996;Laerm;51545;51.568;6.998;2023-02-26T01:24:17;38.69;32.59;44.23;;
64996;Laerm;51545;51.568;6.998;2023-02-26T01:26:44;37.32;30.38;44.44;;
64996;Laerm;51545;51.568;6.998;2023-02-26T01:29:12;37.11;30.83;44.05;;
64996;Laerm;51545;51.568;6.998;2023-02-26T01:32:18;36.40;30.13;45.78;;
64996;Laerm;51545;51.568;6.998;2023-02-26T01:34:47;37.98;30.39;45.91;;
64996;Laerm;51545;51.568;6.998;2023-02-26T01:37:34;35.02;29.68;48.77;;
64996;Laerm;51545;51.568;6.998;2023-02-26T01:40:27;35.44;31.00;46.59;;
64996;Laerm;51545;51.568;6.998;2023-02-26T01:43:05;36.44;29.52;48.50;;
64996;Laerm;51545;51.568;6.998;2023-02-26T01:45:41;36.68;31.82;42.08;;
64996;Laerm;51545;51.568;6.998;2023-02-26T01:48:30;35.38;30.86;43.43;;
64996;Laerm;51545;51.568;6.998;2023-02-26T01:50:58;35.85;30.44;44.10;;
64996;Laerm;51545;51.568;6.998;2023-02-26T01:53:25;34.59;29.38;44.83;;
64996;Laerm;51545;51.568;6.998;2023-02-26T01:55:59;35.80;30.32;42.84;;
64996;Laerm;51545;51.568;6.998;2023-02-26T01:58:29;34.98;29.84;46.57;;
64996;Laerm;51545;51.568;6.998;2023-02-26T02:00:56;33.68;29.80;42.29;;
64996;Laerm;51545;51.568;6.998;2023-02-26T02:03:23;36.58;30.81;42.92;;
64996;Laerm;51545;51.568;6.998;2023-02-26T02:05:54;35.30;30.83;39.55;;
64996;Laerm;51545;51.568;6.998;2023-02-26T02:08:21;35.09;30.45;43.99;;
64996;Laerm;51545;51.568;6.998;2023-02-26T02:10:47;36.85;30.67;49.81;;
64996;Laerm;51545;51.568;6.998;2023-02-26T02:13:24;38.65;32.70;49.39;;
64996;Laerm;51545;51.568;6.998;2023-02-26T02:16:17;36.47;31.62;43.85;;
64996;Laerm;51545;51.568;6.998;2023-02-26T02:19:00;35.82;30.78;44.88;;
64996;Laerm;51545;51.568;6.998;2023-02-26T02:32:11;33.93;29.57;43.91;;
64996;Laerm;51545;51.568;6.998;2023-02-26T02:34:45;46.63;30.91;67.21;;
64996;Laerm;51545;51.568;6.998;2023-02-26T02:37:20;34.52;29.60;44.84;;
64996;Laerm;51545;51.568;6.998;2023-02-26T02:40:03;34.62;29.79;46.89;;
64996;Laerm;51545;51.568;6.998;2023-02-26T02:42:34;36.02;29.75;44.78;;
64996;Laerm;51545;51.568;6.998;2023-02-26T02:45:05;37.60;30.48;45.37;;
64996;Laerm;51545;51.568;6.998;2023-02-26T02:47:34;35.32;29.77;42.24;;
64996;Laerm;51545;51.568;6.998;2023-02-26T02:50:14;36.69;30.93;43.99;;
64996;Laerm;51545;51.568;6.998;2023-02-26T02:53:00;35.48;29.78;44.77;;
64996;Laerm;51545;51.568;6.998;2023-02-26T02:55:33;34.62;29.73;42.70;;
64996;Laerm;51545;51.568;6.998;2023-02-26T02:58:04;37.55;30.72;52.35;;
64996;Laerm;51545;51.568;6.998;2023-02-26T03:00:35;40.76;32.70;55.79;;
64996;Laerm;51545;51.568;6.998;2023-02-26T03:05:36;36.05;29.81;50.11;;
64996;Laerm;51545;51.568;6.998;2023-02-26T03:08:06;37.69;31.06;52.37;;
64996;Laerm;51545;51.568;6.998;2023-02-26T03:10:33;37.41;30.54;51.33;;
64996;Laerm;51545;51.568;6.998;2023-02-26T03:12:59;37.16;30.61;51.67;;
64996;Laerm;51545;51.568;6.998;2023-02-26T03:18:12;41.38;29.62;58.53;;
64996;Laerm;51545;51.568;6.998;2023-02-26T03:20:49;41.98;30.74;59.84;;
64996;Laerm;51545;51.568;6.998;2023-02-26T03:23:23;42.20;31.99;58.26;;
64996;Laerm;51545;51.568;6.998;2023-02-26T03:26:10;43.04;32.56;59.22;;
64996;Laerm;51545;51.568;6.998;2023-02-26T03:28:51;42.24;31.27;58.88;;
64996;Laerm;51545;51.568;6.998;2023-02-26T03:33:55;43.36;31.22;58.88;;
64996;Laerm;51545;51.568;6.998;2023-02-26T03:36:30;41.81;30.17;59.84;;
64996;Laerm;51545;51.568;6.998;2023-02-26T03:42:03;42.02;31.43;58.56;;
64996;Laerm;51545;51.568;6.998;2023-02-26T03:45:21;41.44;31.81;58.36;;
64996;Laerm;51545;51.568;6.998;2023-02-26T03:47:22;42.82;30.72;61.51;;
64996;Laerm;51545;51.568;6.998;2023-02-26T03:52:34;42.99;32.83;58.92;;
64996;Laerm;51545;51.568;6.998;2023-02-26T03:55:05;41.76;30.08;59.42;;
64996;Laerm;51545;51.568;6.998;2023-02-26T03:57:33;43.69;34.23;58.66;;
64996;Laerm;51545;51.568;6.998;2023-02-26T03:59:59;41.16;32.17;57.39;;
64996;Laerm;51545;51.568;6.998;2023-02-26T04:02:33;42.00;29.99;58.17;;
64996;Laerm;51545;51.568;6.998;2023-02-26T04:05:25;41.47;32.10;57.31;;
64996;Laerm;51545;51.568;6.998;2023-02-26T04:07:52;41.88;31.46;59.40;;
64996;Laerm;51545;51.568;6.998;2023-02-26T04:10:21;41.68;31.85;60.62;;
64996;Laerm;51545;51.568;6.998;2023-02-26T04:12:49;42.01;30.59;58.97;;
64996;Laerm;51545;51.568;6.998;2023-02-26T04:15:15;40.78;30.85;54.75;;
64996;Laerm;51545;51.568;6.998;2023-02-26T04:17:40;42.51;31.12;59.28;;
64996;Laerm;51545;51.568;6.998;2023-02-26T04:20:06;42.71;32.43;59.47;;
64996;Laerm;51545;51.568;6.998;2023-02-26T04:22:34;41.01;32.74;56.82;;
64996;Laerm;51545;51.568;6.998;2023-02-26T04:24:59;38.96;33.27;54.50;;
64996;Laerm;51545;51.568;6.998;2023-02-26T04:27:25;40.34;31.67;58.95;;
64996;Laerm;51545;51.568;6.998;2023-02-26T04:29:50;38.93;32.72;48.57;;
64996;Laerm;51545;51.568;6.998;2023-02-26T04:32:16;38.31;32.56;51.74;;
64996;Laerm;51545;51.568;6.998;2023-02-26T04:34:41;39.01;31.76;54.43;;
64996;Laerm;51545;51.568;6.998;2023-02-26T04:37:06;41.33;33.72;58.70;;
64996;Laerm;51545;51.568;6.998;2023-02-26T04:39:32;40.93;30.63;56.20;;
64996;Laerm;51545;51.568;6.998;2023-02-26T04:41:57;41.03;31.36;55.26;;
64996;Laerm;51545;51.568;6.998;2023-02-26T04:44:23;40.48;32.98;55.40;;
64996;Laerm;51545;51.568;6.998;2023-02-26T04:46:48;42.27;31.68;57.58;;
64996;Laerm;51545;51.568;6.998;2023-02-26T04:49:14;46.87;32.36;68.91;;
64996;Laerm;51545;51.568;6.998;2023-02-26T04:51:39;43.93;30.79;59.63;;
64996;Laerm;51545;51.568;6.998;2023-02-26T04:54:05;41.30;31.26;56.69;;
64996;Laerm;51545;51.568;6.998;2023-02-26T04:56:30;41.90;32.58;60.18;;
64996;Laerm;51545;51.568;6.998;2023-02-26T04:58:56;41.88;31.03;61.97;;
64996;Laerm;51545;51.568;6.998;2023-02-26T05:01:22;42.76;31.67;57.46;;
64996;Laerm;51545;51.568;6.998;2023-02-26T05:03:47;41.35;32.40;59.53;;
64996;Laerm;51545;51.568;6.998;2023-02-26T05:06:13;39.50;32.68;56.36;;
64996;Laerm;51545;51.568;6.998;2023-02-26T05:08:38;42.03;30.02;60.39;;
64996;Laerm;51545;51.568;6.998;2023-02-26T05:11:08;41.21;30.35;62.03;;
64996;Laerm;51545;51.568;6.998;2023-02-26T05:13:33;44.23;32.95;66.38;;
64996;Laerm;51545;51.568;6.998;2023-02-26T05:15:59;45.40;32.69;61.63;;
64996;Laerm;51545;51.568;6.998;2023-02-26T05:18:24;45.36;32.66;63.34;;
64996;Laerm;51545;51.568;6.998;2023-02-26T05:20:54;40.38;34.37;56.43;;
64996;Laerm;51545;51.568;6.998;2023-02-26T05:23:20;42.19;33.62;57.94;;
64996;Laerm;51545;51.568;6.998;2023-02-26T05:25:46;40.67;34.85;56.99;;
64996;Laerm;51545;51.568;6.998;2023-02-26T05:28:11;39.57;33.52;52.85;;
64996;Laerm;51545;51.568;6.998;2023-02-26T05:30:38;39.88;30.87;56.10;;
64996;Laerm;51545;51.568;6.998;2023-02-26T05:33:04;40.27;30.66;55.37;;
64996;Laerm;51545;51.568;6.998;2023-02-26T05:35:29;40.40;32.11;57.39;;
64996;Laerm;51545;51.568;6.998;2023-02-26T05:37:54;40.15;31.71;56.18;;
64996;Laerm;51545;51.568;6.998;2023-02-26T05:40:20;38.80;32.95;51.28;;
64996;Laerm;51545;51.568;6.998;2023-02-26T05:42:45;38.65;33.11;54.53;;
64996;Laerm;51545;51.568;6.998;2023-02-26T05:45:11;40.44;32.66;57.06;;
64996;Laerm;51545;51.568;6.998;2023-02-26T05:47:37;41.09;33.20;56.71;;
64996;Laerm;51545;51.568;6.998;2023-02-26T05:50:04;39.49;32.23;52.73;;
64996;Laerm;51545;51.568;6.998;2023-02-26T05:52:29;39.69;32.35;55.46;;
64996;Laerm;51545;51.568;6.998;2023-02-26T05:54:55;40.07;32.09;53.27;;
64996;Laerm;51545;51.568;6.998;2023-02-26T05:57:21;38.86;31.13;57.52;;
64996;Laerm;51545;51.568;6.998;2023-02-26T05:59:46;37.25;32.19;50.02;;
64996;Laerm;51545;51.568;6.998;2023-02-26T06:02:12;38.93;33.34;59.04;;
64996;Laerm;51545;51.568;6.998;2023-02-26T06:04:37;40.47;32.23;58.31;;
64996;Laerm;51545;51.568;6.998;2023-02-26T06:07:03;40.06;32.21;61.15;;
64996;Laerm;51545;51.568;6.998;2023-02-26T06:09:28;44.69;33.38;64.18;;
64996;Laerm;51545;51.568;6.998;2023-02-26T06:11:54;42.64;32.46;58.26;;
64996;Laerm;51545;51.568;6.998;2023-02-26T06:14:19;38.55;32.23;58.63;;
64996;Laerm;51545;51.568;6.998;2023-02-26T06:16:45;40.36;31.99;53.58;;
64996;Laerm;51545;51.568;6.998;2023-02-26T06:19:10;57.12;33.93;71.18;;
64996;Laerm;51545;51.568;6.998;2023-02-26T06:21:36;56.25;31.84;71.24;;
64996;Laerm;51545;51.568;6.998;2023-02-26T06:24:01;44.91;31.81;68.24;;
64996;Laerm;51545;51.568;6.998;2023-02-26T06:26:26;44.09;32.37;57.78;;
64996;Laerm;51545;51.568;6.998;2023-02-26T06:28:52;45.18;34.06;62.39;;
64996;Laerm;51545;51.568;6.998;2023-02-26T06:31:17;39.85;32.61;56.18;;
64996;Laerm;51545;51.568;6.998;2023-02-26T06:33:43;41.02;31.70;56.53;;
64996;Laerm;51545;51.568;6.998;2023-02-26T06:36:08;45.30;32.35;63.62;;
64996;Laerm;51545;51.568;6.998;2023-02-26T06:38:34;45.25;33.82;63.71;;
64996;Laerm;51545;51.568;6.998;2023-02-26T06:41:00;48.03;33.97;76.53;;
64996;Laerm;51545;51.568;6.998;2023-02-26T06:43:25;39.31;32.88;53.44;;
64996;Laerm;51545;51.568;6.998;2023-02-26T06:45:51;44.56;33.85;61.35;;
64996;Laerm;51545;51.568;6.998;2023-02-26T06:48:16;43.18;33.18;60.90;;
64996;Laerm;51545;51.568;6.998;2023-02-26T06:50:42;42.91;33.68;59.99;;
64996;Laerm;51545;51.568;6.998;2023-02-26T06:53:07;41.28;34.47;59.83;;
64996;Laerm;51545;51.568;6.998;2023-02-26T06:55:33;40.12;33.14;56.13;;
64996;Laerm;51545;51.568;6.998;2023-02-26T06:57:58;38.32;32.11;46.71;;
64996;Laerm;51545;51.568;6.998;2023-02-26T07:00:24;38.20;34.45;53.30;;
64996;Laerm;51545;51.568;6.998;2023-02-26T07:02:51;38.05;34.13;46.85;;
64996;Laerm;51545;51.568;6.998;2023-02-26T07:05:16;41.98;34.02;62.44;;
64996;Laerm;51545;51.568;6.998;2023-02-26T07:07:43;44.31;34.57;57.83;;
64996;Laerm;51545;51.568;6.998;2023-02-26T07:10:10;40.96;34.31;56.56;;
64996;Laerm;51545;51.568;6.998;2023-02-26T07:12:36;41.94;34.15;60.37;;
64996;Laerm;51545;51.568;6.998;2023-02-26T07:15:04;41.49;36.15;59.70;;
64996;Laerm;51545;51.568;6.998;2023-02-26T07:17:30;42.15;35.27;53.49;;
64996;Laerm;51545;51.568;6.998;2023-02-26T07:19:56;41.93;35.02;57.20;;
64996;Laerm;51545;51.568;6.998;2023-02-26T07:22:21;42.64;35.34;53.80;;
64996;Laerm;51545;51.568;6.998;2023-02-26T07:24:47;44.31;36.10;61.54;;
64996;Laerm;51545;51.568;6.998;2023-02-26T07:27:13;40.53;35.27;52.82;;
64996;Laerm;51545;51.568;6.998;2023-02-26T07:29:39;43.47;35.54;58.50;;
64996;Laerm;51545;51.568;6.998;2023-02-26T07:32:04;45.02;35.42;62.67;;
64996;Laerm;51545;51.568;6.998;2023-02-26T07:34:30;46.18;36.00;62.76;;
64996;Laerm;51545;51.568;6.998;2023-02-26T07:36:56;43.55;34.55;58.72;;
64996;Laerm;51545;51.568;6.998;2023-02-26T07:39:23;44.03;34.65;56.79;;
64996;Laerm;51545;51.568;6.998;2023-02-26T07:41:49;45.00;34.84;60.56;;
64996;Laerm;51545;51.568;6.998;2023-02-26T07:44:14;43.45;34.59;56.32;;
64996;Laerm;51545;51.568;6.998;2023-02-26T07:46:40;43.04;36.07;58.35;;
64996;Laerm;51545;51.568;6.998;2023-02-26T07:49:05;50.57;36.34;73.56;;
64996;Laerm;51545;51.568;6.998;2023-02-26T07:51:31;42.77;36.40;62.34;;
64996;Laerm;51545;51.568;6.998;2023-02-26T07:53:56;43.94;35.69;63.77;;
64996;Laerm;51545;51.568;6.998;2023-02-26T07:56:22;42.03;37.72;57.64;;
64996;Laerm;51545;51.568;6.998;2023-02-26T07:58:47;42.50;36.45;55.90;;
64996;Laerm;51545;51.568;6.998;2023-02-26T08:01:13;40.81;34.20;49.93;;
64996;Laerm;51545;51.568;6.998;2023-02-26T08:03:38;44.51;36.58;60.55;;
64996;Laerm;51545;51.568;6.998;2023-02-26T08:06:04;40.85;36.26;54.82;;
64996;Laerm;51545;51.568;6.998;2023-02-26T08:08:30;40.30;35.48;52.89;;
64996;Laerm;51545;51.568;6.998;2023-02-26T08:10:58;38.31;34.86;48.39;;
64996;Laerm;51545;51.568;6.998;2023-02-26T08:13:24;39.28;33.40;57.25;;
64996;Laerm;51545;51.568;6.998;2023-02-26T08:15:49;39.91;35.40;49.52;;
64996;Laerm;51545;51.568;6.998;2023-02-26T08:18:15;46.22;37.01;56.75;;
64996;Laerm;51545;51.568;6.998;2023-02-26T08:20:40;48.72;40.87;59.52;;
64996;Laerm;51545;51.568;6.998;2023-02-26T08:23:06;48.20;38.14;60.29;;
64996;Laerm;51545;51.568;6.998;2023-02-26T08:25:31;47.41;35.76;60.06;;
64996;Laerm;51545;51.568;6.998;2023-02-26T08:27:57;43.11;35.52;60.17;;
64996;Laerm;51545;51.568;6.998;2023-02-26T08:30:23;43.31;35.85;59.31;;
64996;Laerm;51545;51.568;6.998;2023-02-26T08:32:49;42.58;35.62;58.17;;
64996;Laerm;51545;51.568;6.998;2023-02-26T08:35:14;42.50;36.35;56.47;;
64996;Laerm;51545;51.568;6.998;2023-02-26T08:37:40;41.15;36.50;54.59;;
64996;Laerm;51545;51.568;6.998;2023-02-26T08:40:06;43.63;36.96;61.42;;
64996;Laerm;51545;51.568;6.998;2023-02-26T08:42:33;41.88;36.40;56.84;;
64996;Laerm;51545;51.568;6.998;2023-02-26T08:44:58;40.16;35.84;50.38;;
64996;Laerm;51545;51.568;6.998;2023-02-26T08:47:24;43.53;36.91;56.70;;
64996;Laerm;51545;51.568;6.998;2023-02-26T08:49:49;44.11;36.66;56.38;;
64996;Laerm;51545;51.568;6.998;2023-02-26T08:52:15;43.56;36.95;54.80;;
64996;Laerm;51545;51.568;6.998;2023-02-26T08:54:40;44.77;35.52;59.07;;
64996;Laerm;51545;51.568;6.998;2023-02-26T08:57:06;42.86;35.93;55.50;;
64996;Laerm;51545;51.568;6.998;2023-02-26T08:59:31;44.38;38.14;63.49;;
64996;Laerm;51545;51.568;6.998;2023-02-26T09:01:57;46.26;37.21;69.45;;
64996;Laerm;51545;51.568;6.998;2023-02-26T09:04:22;45.70;37.32;59.00;;
64996;Laerm;51545;51.568;6.998;2023-02-26T09:06:48;44.19;36.68;60.09;;
64996;Laerm;51545;51.568;6.998;2023-02-26T09:09:13;44.12;38.36;62.03;;
64996;Laerm;51545;51.568;6.998;2023-02-26T09:11:39;42.78;37.03;58.37;;
64996;Laerm;51545;51.568;6.998;2023-02-26T09:14:05;45.25;37.81;59.10;;
64996;Laerm;51545;51.568;6.998;2023-02-26T09:16:31;41.41;36.96;56.15;;
64996;Laerm;51545;51.568;6.998;2023-02-26T09:19:00;41.16;35.34;51.97;;
64996;Laerm;51545;51.568;6.998;2023-02-26T09:21:25;54.32;35.10;73.11;;
64996;Laerm;51545;51.568;6.998;2023-02-26T09:23:51;45.30;35.82;67.72;;
64996;Laerm;51545;51.568;6.998;2023-02-26T09:26:16;46.05;37.53;64.34;;
64996;Laerm;51545;51.568;6.998;2023-02-26T09:28:42;44.06;38.04;55.07;;
64996;Laerm;51545;51.568;6.998;2023-02-26T09:31:07;41.90;38.21;53.77;;
64996;Laerm;51545;51.568;6.998;2023-02-26T09:33:33;50.27;38.86;75.82;;
64996;Laerm;51545;51.568;6.998;2023-02-26T09:35:59;40.93;36.04;54.62;;
64996;Laerm;51545;51.568;6.998;2023-02-26T09:38:24;43.84;36.90;54.97;;
64996;Laerm;51545;51.568;6.998;2023-02-26T09:41:02;44.69;38.46;54.99;;
64996;Laerm;51545;51.568;6.998;2023-02-26T09:46:05;44.11;37.39;58.18;;
64996;Laerm;51545;51.568;6.998;2023-02-26T09:48:37;44.76;38.31;57.93;;
64996;Laerm;51545;51.568;6.998;2023-02-26T09:51:04;48.11;40.15;68.38;;
64996;Laerm;51545;51.568;6.998;2023-02-26T09:53:34;46.23;40.10;57.36;;
64996;Laerm;51545;51.568;6.998;2023-02-26T09:56:12;46.65;36.68;57.08;;
64996;Laerm;51545;51.568;6.998;2023-02-26T09:58:40;43.43;37.15;56.39;;
64996;Laerm;51545;51.568;6.998;2023-02-26T10:06:31;42.96;36.47;54.47;;
64996;Laerm;51545;51.568;6.998;2023-02-26T10:09:24;44.23;39.71;64.60;;
64996;Laerm;51545;51.568;6.998;2023-02-26T10:12:16;42.70;37.01;64.59;;
64996;Laerm;51545;51.568;6.998;2023-02-26T10:17:25;56.95;38.30;78.62;;
64996;Laerm;51545;51.568;6.998;2023-02-26T10:19:58;41.72;38.02;52.54;;
64996;Laerm;51545;51.568;6.998;2023-02-26T10:25:37;42.86;38.44;54.83;;
64996;Laerm;51545;51.568;6.998;2023-02-26T10:30:58;42.36;36.34;52.94;;
64996;Laerm;51545;51.568;6.998;2023-02-26T10:33:51;40.39;36.12;48.88;;
64996;Laerm;51545;51.568;6.998;2023-02-26T10:36:23;41.42;35.16;62.68;;
64996;Laerm;51545;51.568;6.998;2023-02-26T10:38:53;42.94;36.48;57.88;;
64996;Laerm;51545;51.568;6.998;2023-02-26T10:41:24;44.58;36.29;58.48;;
64996;Laerm;51545;51.568;6.998;2023-02-26T10:44:31;41.37;36.82;55.06;;
64996;Laerm;51545;51.568;6.998;2023-02-26T10:51:50;42.99;36.89;60.35;;
64996;Laerm;51545;51.568;6.998;2023-02-26T10:54:22;43.36;36.52;59.26;;
64996;Laerm;51545;51.568;6.998;2023-02-26T10:56:49;39.92;36.17;51.81;;
64996;Laerm;51545;51.568;6.998;2023-02-26T10:59:15;40.45;35.89;62.83;;
64996;Laerm;51545;51.568;6.998;2023-02-26T11:01:41;42.50;35.68;57.38;;
64996;Laerm;51545;51.568;6.998;2023-02-26T11:04:11;46.68;37.23;63.31;;
64996;Laerm;51545;51.568;6.998;2023-02-26T11:06:41;40.49;36.67;59.73;;
64996;Laerm;51545;51.568;6.998;2023-02-26T11:09:31;43.59;38.25;60.81;;
64996;Laerm;51545;51.568;6.998;2023-02-26T11:14:37;44.66;36.77;63.10;;
64996;Laerm;51545;51.568;6.998;2023-02-26T11:17:09;41.87;36.78;58.38;;
64996;Laerm;51545;51.568;6.998;2023-02-26T11:19:41;44.58;37.68;57.83;;
64996;Laerm;51545;51.568;6.998;2023-02-26T11:22:12;44.43;37.73;58.02;;
64996;Laerm;51545;51.568;6.998;2023-02-26T11:24:45;46.49;35.68;61.98;;
64996;Laerm;51545;51.568;6.998;2023-02-26T11:27:18;45.64;34.30;63.40;;
64996;Laerm;51545;51.568;6.998;2023-02-26T11:29:47;46.15;35.50;77.71;;
64996;Laerm;51545;51.568;6.998;2023-02-26T11:32:19;39.83;34.39;54.41;;
64996;Laerm;51545;51.568;6.998;2023-02-26T11:34:50;40.13;35.57;57.71;;
64996;Laerm;51545;51.568;6.998;2023-02-26T11:37:22;39.33;35.57;48.46;;
64996;Laerm;51545;51.568;6.998;2023-02-26T11:39:56;43.14;36.47;58.18;;
64996;Laerm;51545;51.568;6.998;2023-02-26T11:42:26;45.07;35.44;63.16;;
64996;Laerm;51545;51.568;6.998;2023-02-26T11:44:53;48.29;35.21;66.85;;
64996;Laerm;51545;51.568;6.998;2023-02-26T11:47:24;46.14;36.72;66.79;;
64996;Laerm;51545;51.568;6.998;2023-02-26T11:50:02;50.72;36.42;68.99;;
64996;Laerm;51545;51.568;6.998;2023-02-26T11:52:35;49.76;36.98;69.42;;
64996;Laerm;51545;51.568;6.998;2023-02-26T11:55:17;43.77;35.74;67.36;;
64996;Laerm;51545;51.568;6.998;2023-02-26T11:57:47;45.14;38.03;56.02;;
64996;Laerm;51545;51.568;6.998;2023-02-26T12:00:31;43.98;37.40;63.93;;
64996;Laerm;51545;51.568;6.998;2023-02-26T12:03:05;44.25;37.42;66.10;;
64996;Laerm;51545;51.568;6.998;2023-02-26T12:05:35;43.52;37.42;61.74;;
64996;Laerm;51545;51.568;6.998;2023-02-26T12:08:03;43.91;38.10;62.44;;
64996;Laerm;51545;51.568;6.998;2023-02-26T12:10:50;46.43;38.01;65.80;;
64996;Laerm;51545;51.568;6.998;2023-02-26T12:13:32;43.76;35.86;65.24;;
64996;Laerm;51545;51.568;6.998;2023-02-26T12:27:12;54.24;36.77;80.17;;
64996;Laerm;51545;51.568;6.998;2023-02-26T12:29:54;40.57;34.22;66.89;;
64996;Laerm;51545;51.568;6.998;2023-02-26T12:35:23;42.71;37.72;59.49;;
64996;Laerm;51545;51.568;6.998;2023-02-26T12:40:54;48.14;36.83;68.80;;
64996;Laerm;51545;51.568;6.998;2023-02-26T12:43:38;44.40;36.56;61.11;;
64996;Laerm;51545;51.568;6.998;2023-02-26T12:48:44;44.13;36.99;59.04;;
64996;Laerm;51545;51.568;6.998;2023-02-26T12:54:28;42.24;37.97;55.41;;
64996;Laerm;51545;51.568;6.998;2023-02-26T12:57:08;43.76;37.85;61.43;;
64996;Laerm;51545;51.568;6.998;2023-02-26T13:08:08;45.40;38.59;66.11;;
64996;Laerm;51545;51.568;6.998;2023-02-26T13:19:18;48.05;41.04;69.74;;
64996;Laerm;51545;51.568;6.998;2023-02-26T13:21:52;46.02;40.62;69.48;;
64996;Laerm;51545;51.568;6.998;2023-02-26T13:24:40;51.23;39.93;70.80;;
64996;Laerm;51545;51.568;6.998;2023-02-26T13:27:08;46.03;38.37;63.68;;
64996;Laerm;51545;51.568;6.998;2023-02-26T13:29:50;43.67;36.59;65.45;;
64996;Laerm;51545;51.568;6.998;2023-02-26T13:32:24;45.15;38.25;61.37;;
64996;Laerm;51545;51.568;6.998;2023-02-26T13:35:05;41.45;36.56;55.36;;
64996;Laerm;51545;51.568;6.998;2023-02-26T13:37:44;46.33;36.68;70.87;;
64996;Laerm;51545;51.568;6.998;2023-02-26T13:45:47;44.98;37.25;67.93;;
64996;Laerm;51545;51.568;6.998;2023-02-26T13:53:47;58.28;38.49;85.61;;
64996;Laerm;51545;51.568;6.998;2023-02-26T13:56:21;43.97;37.36;69.87;;
64996;Laerm;51545;51.568;6.998;2023-02-26T13:59:02;41.21;36.21;61.26;;
64996;Laerm;51545;51.568;6.998;2023-02-26T14:01:34;42.17;35.01;60.01;;
64996;Laerm;51545;51.568;6.998;2023-02-26T14:07:08;45.42;36.24;62.72;;
64996;Laerm;51545;51.568;6.998;2023-02-26T14:09:58;44.45;35.92;62.37;;
64996;Laerm;51545;51.568;6.998;2023-02-26T14:12:39;44.25;36.28;59.25;;
64996;Laerm;51545;51.568;6.998;2023-02-26T14:17:47;43.25;37.81;50.94;;
64996;Laerm;51545;51.568;6.998;2023-02-26T14:20:22;40.76;37.39;50.06;;
64996;Laerm;51545;51.568;6.998;2023-02-26T14:23:38;39.77;35.24;49.16;;
64996;Laerm;51545;51.568;6.998;2023-02-26T14:25:50;41.92;36.98;56.47;;
64996;Laerm;51545;51.568;6.998;2023-02-26T14:30:48;43.35;36.48;69.34;;
64996;Laerm;51545;51.568;6.998;2023-02-26T14:33:16;43.58;36.46;65.15;;
64996;Laerm;51545;51.568;6.998;2023-02-26T14:35:46;46.86;35.98;68.78;;
64996;Laerm;51545;51.568;6.998;2023-02-26T14:38:23;47.14;37.01;64.23;;
64996;Laerm;51545;51.568;6.998;2023-02-26T14:41:39;46.94;37.51;67.01;;
64996;Laerm;51545;51.568;6.998;2023-02-26T14:44:04;46.50;37.68;64.19;;
64996;Laerm;51545;51.568;6.998;2023-02-26T14:46:34;49.04;36.76;73.43;;
64996;Laerm;51545;51.568;6.998;2023-02-26T14:48:59;46.49;36.68;68.58;;
64996;Laerm;51545;51.568;6.998;2023-02-26T15:02:18;45.08;37.28;66.23;;
64996;Laerm;51545;51.568;6.998;2023-02-26T15:08:01;43.61;36.65;62.39;;
64996;Laerm;51545;51.568;6.998;2023-02-26T15:16:35;41.87;37.79;53.93;;
64996;Laerm;51545;51.568;6.998;2023-02-26T15:22:04;42.14;36.09;55.85;;
64996;Laerm;51545;51.568;6.998;2023-02-26T15:24:33;49.36;36.41;77.69;;
64996;Laerm;51545;51.568;6.998;2023-02-26T15:27:02;51.30;36.98;75.38;;
64996;Laerm;51545;51.568;6.998;2023-02-26T15:29:31;44.31;37.25;57.79;;
64996;Laerm;51545;51.568;6.998;2023-02-26T15:32:04;44.45;37.15;64.47;;
64996;Laerm;51545;51.568;6.998;2023-02-26T15:34:30;44.67;36.91;61.80;;
64996;Laerm;51545;51.568;6.998;2023-02-26T15:36:58;44.93;35.46;63.23;;
64996;Laerm;51545;51.568;6.998;2023-02-26T15:39:25;47.12;37.70;65.32;;
64996;Laerm;51545;51.568;6.998;2023-02-26T15:41:52;46.29;37.13;60.10;;
64996;Laerm;51545;51.568;6.998;2023-02-26T15:44:22;46.75;38.92;67.51;;
64996;Laerm;51545;51.568;6.998;2023-02-26T15:46:53;44.14;37.65;61.79;;
64996;Laerm;51545;51.568;6.998;2023-02-26T15:49:38;46.65;36.92;66.67;;
64996;Laerm;51545;51.568;6.998;2023-02-26T15:52:06;48.02;37.59;67.93;;
64996;Laerm;51545;51.568;6.998;2023-02-26T15:54:57;49.50;38.59;66.59;;
64996;Laerm;51545;51.568;6.998;2023-02-26T15:57:25;49.48;37.10;69.96;;
64996;Laerm;51545;51.568;6.998;2023-02-26T15:59:54;49.77;36.94;66.74;;
64996;Laerm;51545;51.568;6.998;2023-02-26T16:02:31;54.08;37.30;80.09;;
64996;Laerm;51545;51.568;6.998;2023-02-26T16:04:57;47.01;35.87;64.79;;
64996;Laerm;51545;51.568;6.998;2023-02-26T16:07:22;46.44;36.56;67.43;;
64996;Laerm;51545;51.568;6.998;2023-02-26T16:09:50;46.76;36.68;65.48;;
64996;Laerm;51545;51.568;6.998;2023-02-26T16:12:19;50.67;37.25;82.25;;
64996;Laerm;51545;51.568;6.998;2023-02-26T16:14:53;47.03;36.80;69.95;;
64996;Laerm;51545;51.568;6.998;2023-02-26T16:17:42;49.93;36.56;62.49;;
64996;Laerm;51545;51.568;6.998;2023-02-26T16:20:20;47.88;37.22;64.77;;
64996;Laerm;51545;51.568;6.998;2023-02-26T16:25:25;45.70;39.21;63.40;;